sensor_id;sensor_type;location;lat;lon;timestamp;temperature;humidity
10986;DHT22;5546;48.714;8.738;2023-05-21T00:00:35;18.30;94.90
10986;DHT22;5546;48.714;8.738;2023-05-21T00:03:01;18.30;94.80
10986;DHT22;5546;48.714;8.738;2023-05-21T00:10:19;18.20;95.10
10986;DHT22;5546;48.714;8.738;2023-05-21T00:12:45;18.00;95.30
10986;DHT22;5546;48.714;8.738;2023-05-21T00:20:04;18.20;95.10
10986;DHT22;5546;48.714;8.738;2023-05-21T00:37:10;17.90;95.50
10986;DHT22;5546;48.714;8.738;2023-05-21T00:39:36;18.20;95.30
10986;DHT22;5546;48.714;8.738;2023-05-21T00:42:01;18.20;95.20
10986;DHT22;5546;48.714;8.738;2023-05-21T00:44:28;18.20;95.10
10986;DHT22;5546;48.714;8.738;2023-05-21T00:46:59;18.20;95.30
10986;DHT22;5546;48.714;8.738;2023-05-21T00:49:26;18.10;95.30
10986;DHT22;5546;48.714;8.738;2023-05-21T00:51:52;18.00;95.40
10986;DHT22;5546;48.714;8.738;2023-05-21T00:54:19;17.90;95.70
10986;DHT22;5546;48.714;8.738;2023-05-21T00:56:45;18.00;95.50
10986;DHT22;5546;48.714;8.738;2023-05-21T00:59:11;17.90;95.60
10986;DHT22;5546;48.714;8.738;2023-05-21T01:01:37;17.90;95.60
10986;DHT22;5546;48.714;8.738;2023-05-21T01:11:37;17.60;96.30
10986;DHT22;5546;48.714;8.738;2023-05-21T01:14:05;17.80;95.80
10986;DHT22;5546;48.714;8.738;2023-05-21T01:16:35;17.80;95.90
10986;DHT22;5546;48.714;8.738;2023-05-21T01:21:28;17.70;95.80
10986;DHT22;5546;48.714;8.738;2023-05-21T01:23:54;17.50;96.20
10986;DHT22;5546;48.714;8.738;2023-05-21T01:26:20;17.60;96.30
10986;DHT22;5546;48.714;8.738;2023-05-21T01:31:28;17.60;96.10
10986;DHT22;5546;48.714;8.738;2023-05-21T01:34:00;17.30;96.40
10986;DHT22;5546;48.714;8.738;2023-05-21T01:36:31;17.50;96.10
10986;DHT22;5546;48.714;8.738;2023-05-21T01:39:02;17.60;95.90
10986;DHT22;5546;48.714;8.738;2023-05-21T01:41:35;17.40;96.30
10986;DHT22;5546;48.714;8.738;2023-05-21T01:44:02;17.40;96.20
10986;DHT22;5546;48.714;8.738;2023-05-21T01:46:32;17.50;96.00
10986;DHT22;5546;48.714;8.738;2023-05-21T01:48:59;17.30;96.30
10986;DHT22;5546;48.714;8.738;2023-05-21T01:51:25;17.10;96.60
10986;DHT22;5546;48.714;8.738;2023-05-21T01:53:51;17.30;96.60
10986;DHT22;5546;48.714;8.738;2023-05-21T02:03:36;17.40;96.30
10986;DHT22;5546;48.714;8.738;2023-05-21T02:06:02;17.40;96.20
10986;DHT22;5546;48.714;8.738;2023-05-21T02:08:28;17.40;96.20
10986;DHT22;5546;48.714;8.738;2023-05-21T02:10:54;17.30;96.40
10986;DHT22;5546;48.714;8.738;2023-05-21T02:13:19;17.40;96.30
10986;DHT22;5546;48.714;8.738;2023-05-21T02:18:12;17.20;96.30
10986;DHT22;5546;48.714;8.738;2023-05-21T02:25:34;17.20;96.30
10986;DHT22;5546;48.714;8.738;2023-05-21T02:28:00;17.10;96.80
10986;DHT22;5546;48.714;8.738;2023-05-21T02:37:45;17.40;96.00
10986;DHT22;5546;48.714;8.738;2023-05-21T02:42:38;17.10;96.60
10986;DHT22;5546;48.714;8.738;2023-05-21T02:45:08;17.10;96.70
10986;DHT22;5546;48.714;8.738;2023-05-21T02:50:00;17.20;96.40
10986;DHT22;5546;48.714;8.738;2023-05-21T02:52:26;17.10;96.40
10986;DHT22;5546;48.714;8.738;2023-05-21T02:54:52;16.90;96.80
10986;DHT22;5546;48.714;8.738;2023-05-21T02:59:44;17.10;96.60
10986;DHT22;5546;48.714;8.738;2023-05-21T03:02:10;17.10;96.60
10986;DHT22;5546;48.714;8.738;2023-05-21T03:04:36;17.10;96.50
10986;DHT22;5546;48.714;8.738;2023-05-21T03:07:03;17.10;96.70
10986;DHT22;5546;48.714;8.738;2023-05-21T03:09:29;17.20;96.50
10986;DHT22;5546;48.714;8.738;2023-05-21T03:19:15;17.00;96.80
10986;DHT22;5546;48.714;8.738;2023-05-21T03:21:41;17.20;96.30
10986;DHT22;5546;48.714;8.738;2023-05-21T03:24:07;16.90;96.40
10986;DHT22;5546;48.714;8.738;2023-05-21T03:28:59;16.80;97.20
10986;DHT22;5546;48.714;8.738;2023-05-21T03:33:52;16.70;97.20
10986;DHT22;5546;48.714;8.738;2023-05-21T03:36:18;16.80;97.00
10986;DHT22;5546;48.714;8.738;2023-05-21T03:38:43;16.90;96.90
10986;DHT22;5546;48.714;8.738;2023-05-21T03:41:09;16.70;97.10
10986;DHT22;5546;48.714;8.738;2023-05-21T03:43:35;16.60;97.50
10986;DHT22;5546;48.714;8.738;2023-05-21T03:53:18;16.80;97.00
10986;DHT22;5546;48.714;8.738;2023-05-21T03:55:44;16.80;97.00
10986;DHT22;5546;48.714;8.738;2023-05-21T04:00:36;16.80;97.20
10986;DHT22;5546;48.714;8.738;2023-05-21T04:03:03;16.80;96.80
10986;DHT22;5546;48.714;8.738;2023-05-21T04:05:28;16.80;96.80
10986;DHT22;5546;48.714;8.738;2023-05-21T04:10:19;16.90;96.70
10986;DHT22;5546;48.714;8.738;2023-05-21T04:12:47;16.80;96.80
10986;DHT22;5546;48.714;8.738;2023-05-21T04:20:10;16.70;97.10
10986;DHT22;5546;48.714;8.738;2023-05-21T04:22:36;16.70;97.40
10986;DHT22;5546;48.714;8.738;2023-05-21T04:25:02;17.00;96.90
10986;DHT22;5546;48.714;8.738;2023-05-21T04:27:27;17.00;96.70
10986;DHT22;5546;48.714;8.738;2023-05-21T04:29:53;16.80;97.00
10986;DHT22;5546;48.714;8.738;2023-05-21T04:37:11;17.00;96.90
10986;DHT22;5546;48.714;8.738;2023-05-21T04:39:37;17.10;96.90
10986;DHT22;5546;48.714;8.738;2023-05-21T04:51:47;17.50;96.40
10986;DHT22;5546;48.714;8.738;2023-05-21T04:54:16;17.50;96.20
10986;DHT22;5546;48.714;8.738;2023-05-21T04:59:08;17.50;96.50
10986;DHT22;5546;48.714;8.738;2023-05-21T05:01:34;17.80;96.00
10986;DHT22;5546;48.714;8.738;2023-05-21T05:08:54;17.90;95.50
10986;DHT22;5546;48.714;8.738;2023-05-21T05:11:20;18.00;95.40
10986;DHT22;5546;48.714;8.738;2023-05-21T05:16:11;18.40;95.10
10986;DHT22;5546;48.714;8.738;2023-05-21T05:23:30;18.40;94.70
10986;DHT22;5546;48.714;8.738;2023-05-21T05:25:56;18.60;94.70
10986;DHT22;5546;48.714;8.738;2023-05-21T05:28:21;19.00;94.30
10986;DHT22;5546;48.714;8.738;2023-05-21T05:47:51;19.40;93.50
10986;DHT22;5546;48.714;8.738;2023-05-21T05:50:17;19.60;93.00
10986;DHT22;5546;48.714;8.738;2023-05-21T05:55:09;19.60;93.20
10986;DHT22;5546;48.714;8.738;2023-05-21T05:57:36;19.90;92.80
10986;DHT22;5546;48.714;8.738;2023-05-21T06:02:28;20.30;92.10
10986;DHT22;5546;48.714;8.738;2023-05-21T06:09:45;20.90;91.30
10986;DHT22;5546;48.714;8.738;2023-05-21T06:12:11;21.20;90.70
10986;DHT22;5546;48.714;8.738;2023-05-21T06:17:06;21.50;90.60
10986;DHT22;5546;48.714;8.738;2023-05-21T06:19:31;21.60;90.30
10986;DHT22;5546;48.714;8.738;2023-05-21T06:24:22;21.90;90.10
10986;DHT22;5546;48.714;8.738;2023-05-21T06:26:48;21.90;89.60
10986;DHT22;5546;48.714;8.738;2023-05-21T06:31:41;22.90;87.10
10986;DHT22;5546;48.714;8.738;2023-05-21T06:34:06;23.30;85.70
10986;DHT22;5546;48.714;8.738;2023-05-21T06:36:32;23.60;84.90
10986;DHT22;5546;48.714;8.738;2023-05-21T06:38:57;23.70;85.50
10986;DHT22;5546;48.714;8.738;2023-05-21T06:41:23;24.60;82.90
10986;DHT22;5546;48.714;8.738;2023-05-21T06:43:48;25.10;81.50
10986;DHT22;5546;48.714;8.738;2023-05-21T06:46:14;25.40;80.30
10986;DHT22;5546;48.714;8.738;2023-05-21T06:48:40;25.70;79.60
10986;DHT22;5546;48.714;8.738;2023-05-21T06:51:05;25.90;79.30
10986;DHT22;5546;48.714;8.738;2023-05-21T06:53:31;25.90;78.70
10986;DHT22;5546;48.714;8.738;2023-05-21T06:55:56;26.40;76.80
10986;DHT22;5546;48.714;8.738;2023-05-21T06:58:22;26.40;77.40
10986;DHT22;5546;48.714;8.738;2023-05-21T07:00:47;27.90;74.50
10986;DHT22;5546;48.714;8.738;2023-05-21T07:03:13;29.50;68.00
10986;DHT22;5546;48.714;8.738;2023-05-21T07:05:39;29.50;68.40
10986;DHT22;5546;48.714;8.738;2023-05-21T07:08:05;30.20;68.00
10986;DHT22;5546;48.714;8.738;2023-05-21T07:10:30;31.40;64.90
10986;DHT22;5546;48.714;8.738;2023-05-21T07:12:56;31.10;63.30
10986;DHT22;5546;48.714;8.738;2023-05-21T07:15:21;31.30;64.30
10986;DHT22;5546;48.714;8.738;2023-05-21T07:17:47;32.10;61.40
10986;DHT22;5546;48.714;8.738;2023-05-21T07:20:12;33.40;59.70
10986;DHT22;5546;48.714;8.738;2023-05-21T07:22:38;33.10;58.00
10986;DHT22;5546;48.714;8.738;2023-05-21T07:25:05;32.40;59.80
10986;DHT22;5546;48.714;8.738;2023-05-21T07:27:31;32.20;58.80
10986;DHT22;5546;48.714;8.738;2023-05-21T07:29:56;30.80;61.10
10986;DHT22;5546;48.714;8.738;2023-05-21T07:32:22;28.90;64.10
10986;DHT22;5546;48.714;8.738;2023-05-21T07:34:53;28.90;65.30
10986;DHT22;5546;48.714;8.738;2023-05-21T07:37:19;29.00;66.10
10986;DHT22;5546;48.714;8.738;2023-05-21T07:39:45;29.40;64.00
10986;DHT22;5546;48.714;8.738;2023-05-21T07:42:10;28.80;63.80
10986;DHT22;5546;48.714;8.738;2023-05-21T07:44:36;28.20;67.00
10986;DHT22;5546;48.714;8.738;2023-05-21T07:49:27;28.10;67.80
10986;DHT22;5546;48.714;8.738;2023-05-21T07:54:19;28.30;65.90
10986;DHT22;5546;48.714;8.738;2023-05-21T07:56:44;28.00;66.80
10986;DHT22;5546;48.714;8.738;2023-05-21T08:01:36;27.30;69.20
10986;DHT22;5546;48.714;8.738;2023-05-21T08:04:02;27.00;68.90
10986;DHT22;5546;48.714;8.738;2023-05-21T08:06:31;27.30;68.00
10986;DHT22;5546;48.714;8.738;2023-05-21T08:09:01;27.40;68.80
10986;DHT22;5546;48.714;8.738;2023-05-21T08:11:27;27.50;69.80
10986;DHT22;5546;48.714;8.738;2023-05-21T08:16:18;26.40;70.60
10986;DHT22;5546;48.714;8.738;2023-05-21T08:28:29;27.50;67.40
10986;DHT22;5546;48.714;8.738;2023-05-21T08:30:55;27.70;68.00
10986;DHT22;5546;48.714;8.738;2023-05-21T08:33:22;27.80;67.90
10986;DHT22;5546;48.714;8.738;2023-05-21T08:35:48;27.90;67.80
10986;DHT22;5546;48.714;8.738;2023-05-21T08:38:13;27.90;70.10
10986;DHT22;5546;48.714;8.738;2023-05-21T08:45:39;27.40;68.30
10986;DHT22;5546;48.714;8.738;2023-05-21T08:48:08;27.00;68.60
10986;DHT22;5546;48.714;8.738;2023-05-21T08:50:34;26.90;68.00
10986;DHT22;5546;48.714;8.738;2023-05-21T08:53:00;26.70;71.30
10986;DHT22;5546;48.714;8.738;2023-05-21T08:57:53;27.60;69.70
10986;DHT22;5546;48.714;8.738;2023-05-21T09:02:49;27.30;66.60
10986;DHT22;5546;48.714;8.738;2023-05-21T09:05:15;27.50;67.70
10986;DHT22;5546;48.714;8.738;2023-05-21T09:08:06;28.10;66.50
10986;DHT22;5546;48.714;8.738;2023-05-21T09:10:39;28.50;62.30
10986;DHT22;5546;48.714;8.738;2023-05-21T09:13:05;28.40;63.30
10986;DHT22;5546;48.714;8.738;2023-05-21T09:15:32;29.60;62.10
10986;DHT22;5546;48.714;8.738;2023-05-21T09:17:58;30.20;62.10
10986;DHT22;5546;48.714;8.738;2023-05-21T09:20:24;30.50;62.80
10986;DHT22;5546;48.714;8.738;2023-05-21T09:22:51;30.80;60.00
10986;DHT22;5546;48.714;8.738;2023-05-21T09:25:24;30.80;59.10
10986;DHT22;5546;48.714;8.738;2023-05-21T09:27:57;30.80;59.30
10986;DHT22;5546;48.714;8.738;2023-05-21T09:30:23;31.80;58.60
10986;DHT22;5546;48.714;8.738;2023-05-21T09:32:56;31.70;58.70
10986;DHT22;5546;48.714;8.738;2023-05-21T09:35:22;32.50;57.30
10986;DHT22;5546;48.714;8.738;2023-05-21T09:37:50;33.60;55.80
10986;DHT22;5546;48.714;8.738;2023-05-21T09:40:18;33.30;56.20
10986;DHT22;5546;48.714;8.738;2023-05-21T09:42:46;32.90;56.00
10986;DHT22;5546;48.714;8.738;2023-05-21T09:45:17;32.00;57.20
10986;DHT22;5546;48.714;8.738;2023-05-21T09:47:44;30.90;58.50
10986;DHT22;5546;48.714;8.738;2023-05-21T09:50:12;30.10;60.60
10986;DHT22;5546;48.714;8.738;2023-05-21T09:55:05;28.90;65.40
10986;DHT22;5546;48.714;8.738;2023-05-21T09:57:31;28.90;63.90
10986;DHT22;5546;48.714;8.738;2023-05-21T09:59:57;29.00;64.40
10986;DHT22;5546;48.714;8.738;2023-05-21T10:02:23;29.50;62.30
10986;DHT22;5546;48.714;8.738;2023-05-21T10:04:51;29.40;63.40
10986;DHT22;5546;48.714;8.738;2023-05-21T10:07:20;28.00;65.00
10986;DHT22;5546;48.714;8.738;2023-05-21T10:09:53;27.80;65.40
10986;DHT22;5546;48.714;8.738;2023-05-21T10:12:23;28.60;65.20
10986;DHT22;5546;48.714;8.738;2023-05-21T10:14:58;29.40;62.00
10986;DHT22;5546;48.714;8.738;2023-05-21T10:17:24;30.40;60.80
10986;DHT22;5546;48.714;8.738;2023-05-21T10:19:51;30.00;60.60
10986;DHT22;5546;48.714;8.738;2023-05-21T10:22:19;29.60;61.50
10986;DHT22;5546;48.714;8.738;2023-05-21T10:27:11;29.80;62.30
10986;DHT22;5546;48.714;8.738;2023-05-21T10:32:04;27.70;66.30
10986;DHT22;5546;48.714;8.738;2023-05-21T10:36:59;28.90;65.70
10986;DHT22;5546;48.714;8.738;2023-05-21T10:39:26;29.30;63.60
10986;DHT22;5546;48.714;8.738;2023-05-21T10:54:07;31.30;59.00
10986;DHT22;5546;48.714;8.738;2023-05-21T10:56:53;31.70;57.70
10986;DHT22;5546;48.714;8.738;2023-05-21T11:01:49;33.60;56.30
10986;DHT22;5546;48.714;8.738;2023-05-21T11:04:26;34.70;53.90
10986;DHT22;5546;48.714;8.738;2023-05-21T11:06:52;34.70;54.20
10986;DHT22;5546;48.714;8.738;2023-05-21T11:09:17;36.20;53.00
10986;DHT22;5546;48.714;8.738;2023-05-21T11:11:44;35.80;51.30
10986;DHT22;5546;48.714;8.738;2023-05-21T11:17:03;35.10;51.80
10986;DHT22;5546;48.714;8.738;2023-05-21T11:19:37;35.10;52.20
10986;DHT22;5546;48.714;8.738;2023-05-21T11:22:25;33.50;53.20
10986;DHT22;5546;48.714;8.738;2023-05-21T11:24:52;32.50;55.40
10986;DHT22;5546;48.714;8.738;2023-05-21T11:27:39;33.10;54.50
10986;DHT22;5546;48.714;8.738;2023-05-21T11:30:09;31.80;55.80
10986;DHT22;5546;48.714;8.738;2023-05-21T11:32:42;31.00;58.00
10986;DHT22;5546;48.714;8.738;2023-05-21T11:35:26;31.70;57.40
10986;DHT22;5546;48.714;8.738;2023-05-21T11:37:55;31.20;58.10
10986;DHT22;5546;48.714;8.738;2023-05-21T11:40:25;31.50;57.70
10986;DHT22;5546;48.714;8.738;2023-05-21T11:42:52;32.10;57.00
10986;DHT22;5546;48.714;8.738;2023-05-21T11:45:19;32.60;56.60
10986;DHT22;5546;48.714;8.738;2023-05-21T11:47:46;32.50;55.80
10986;DHT22;5546;48.714;8.738;2023-05-21T11:50:13;33.40;54.70
10986;DHT22;5546;48.714;8.738;2023-05-21T11:52:40;34.70;52.80
10986;DHT22;5546;48.714;8.738;2023-05-21T11:55:06;34.90;51.30
10986;DHT22;5546;48.714;8.738;2023-05-21T11:57:32;32.90;54.80
10986;DHT22;5546;48.714;8.738;2023-05-21T11:59:59;32.40;55.70
10986;DHT22;5546;48.714;8.738;2023-05-21T12:02:30;32.70;55.20
10986;DHT22;5546;48.714;8.738;2023-05-21T12:04:56;32.70;55.60
10986;DHT22;5546;48.714;8.738;2023-05-21T12:07:26;33.20;53.90
10986;DHT22;5546;48.714;8.738;2023-05-21T12:09:55;33.40;54.30
10986;DHT22;5546;48.714;8.738;2023-05-21T12:12:24;33.40;54.10
10986;DHT22;5546;48.714;8.738;2023-05-21T12:14:51;33.40;53.20
10986;DHT22;5546;48.714;8.738;2023-05-21T12:17:18;33.50;53.60
10986;DHT22;5546;48.714;8.738;2023-05-21T12:19:45;33.80;52.80
10986;DHT22;5546;48.714;8.738;2023-05-21T12:22:11;33.80;53.40
10986;DHT22;5546;48.714;8.738;2023-05-21T12:24:37;34.90;51.30
10986;DHT22;5546;48.714;8.738;2023-05-21T12:27:04;35.10;51.80
10986;DHT22;5546;48.714;8.738;2023-05-21T12:29:38;33.90;52.10
10986;DHT22;5546;48.714;8.738;2023-05-21T12:32:05;33.40;53.00
10986;DHT22;5546;48.714;8.738;2023-05-21T12:34:38;33.80;52.90
10986;DHT22;5546;48.714;8.738;2023-05-21T12:37:05;33.50;52.70
10986;DHT22;5546;48.714;8.738;2023-05-21T12:39:36;33.60;53.60
10986;DHT22;5546;48.714;8.738;2023-05-21T12:42:01;33.20;52.50
10986;DHT22;5546;48.714;8.738;2023-05-21T12:44:30;32.80;53.00
10986;DHT22;5546;48.714;8.738;2023-05-21T12:46:57;32.80;54.80
10986;DHT22;5546;48.714;8.738;2023-05-21T12:49:37;33.50;53.60
10986;DHT22;5546;48.714;8.738;2023-05-21T12:52:06;33.90;51.30
10986;DHT22;5546;48.714;8.738;2023-05-21T12:54:35;34.00;51.60
10986;DHT22;5546;48.714;8.738;2023-05-21T12:57:08;33.50;52.90
10986;DHT22;5546;48.714;8.738;2023-05-21T12:59:47;32.00;53.60
10986;DHT22;5546;48.714;8.738;2023-05-21T13:02:20;31.40;54.60
10986;DHT22;5546;48.714;8.738;2023-05-21T13:04:46;31.20;55.90
10986;DHT22;5546;48.714;8.738;2023-05-21T13:07:13;30.90;55.70
10986;DHT22;5546;48.714;8.738;2023-05-21T13:09:40;30.80;56.50
10986;DHT22;5546;48.714;8.738;2023-05-21T13:14:31;31.90;54.50
10986;DHT22;5546;48.714;8.738;2023-05-21T13:19:23;33.00;53.10
10986;DHT22;5546;48.714;8.738;2023-05-21T13:24:14;34.00;52.00
10986;DHT22;5546;48.714;8.738;2023-05-21T13:26:40;34.80;50.70
10986;DHT22;5546;48.714;8.738;2023-05-21T13:29:06;34.70;49.70
10986;DHT22;5546;48.714;8.738;2023-05-21T13:31:31;33.60;53.30
10986;DHT22;5546;48.714;8.738;2023-05-21T13:33:57;33.40;52.30
10986;DHT22;5546;48.714;8.738;2023-05-21T13:36:22;33.40;52.10
10986;DHT22;5546;48.714;8.738;2023-05-21T13:38:47;33.80;51.20
10986;DHT22;5546;48.714;8.738;2023-05-21T13:41:13;33.30;51.30
10986;DHT22;5546;48.714;8.738;2023-05-21T13:43:41;32.20;52.00
10986;DHT22;5546;48.714;8.738;2023-05-21T13:50:59;31.20;50.40
10986;DHT22;5546;48.714;8.738;2023-05-21T13:53:24;31.30;53.70
10986;DHT22;5546;48.714;8.738;2023-05-21T13:55:50;30.60;55.40
10986;DHT22;5546;48.714;8.738;2023-05-21T13:58:15;30.30;55.90
10986;DHT22;5546;48.714;8.738;2023-05-21T14:00:41;30.50;55.40
10986;DHT22;5546;48.714;8.738;2023-05-21T14:03:07;30.80;55.30
10986;DHT22;5546;48.714;8.738;2023-05-21T14:12:52;31.00;52.70
10986;DHT22;5546;48.714;8.738;2023-05-21T14:15:17;30.70;53.70
10986;DHT22;5546;48.714;8.738;2023-05-21T14:17:43;30.20;55.20
10986;DHT22;5546;48.714;8.738;2023-05-21T14:22:35;30.40;55.70
10986;DHT22;5546;48.714;8.738;2023-05-21T14:27:27;30.20;53.10
10986;DHT22;5546;48.714;8.738;2023-05-21T14:34:45;29.00;53.00
10986;DHT22;5546;48.714;8.738;2023-05-21T14:42:03;29.30;54.90
10986;DHT22;5546;48.714;8.738;2023-05-21T14:54:13;28.30;53.70
10986;DHT22;5546;48.714;8.738;2023-05-21T15:06:23;27.70;54.90
10986;DHT22;5546;48.714;8.738;2023-05-21T15:35:35;27.20;63.00
10986;DHT22;5546;48.714;8.738;2023-05-21T15:47:45;26.80;65.20
10986;DHT22;5546;48.714;8.738;2023-05-21T15:55:02;26.30;66.70
10986;DHT22;5546;48.714;8.738;2023-05-21T16:02:20;25.90;71.50
10986;DHT22;5546;48.714;8.738;2023-05-21T16:07:14;26.10;70.00
10986;DHT22;5546;48.714;8.738;2023-05-21T16:09:39;25.50;73.30
10986;DHT22;5546;48.714;8.738;2023-05-21T16:12:05;25.20;72.90
10986;DHT22;5546;48.714;8.738;2023-05-21T16:26:42;24.40;78.80
10986;DHT22;5546;48.714;8.738;2023-05-21T16:29:08;24.90;76.70
10986;DHT22;5546;48.714;8.738;2023-05-21T16:31:33;24.90;76.20
10986;DHT22;5546;48.714;8.738;2023-05-21T16:33:59;24.70;78.20
10986;DHT22;5546;48.714;8.738;2023-05-21T16:58:20;24.40;81.50
10986;DHT22;5546;48.714;8.738;2023-05-21T17:00:46;24.00;83.00
10986;DHT22;5546;48.714;8.738;2023-05-21T17:05:37;24.40;81.60
10986;DHT22;5546;48.714;8.738;2023-05-21T17:08:03;24.00;82.10
10986;DHT22;5546;48.714;8.738;2023-05-21T17:10:29;24.10;81.30
10986;DHT22;5546;48.714;8.738;2023-05-21T17:37:17;24.70;79.90
10986;DHT22;5546;48.714;8.738;2023-05-21T17:54:19;24.10;81.90
10986;DHT22;5546;48.714;8.738;2023-05-21T17:56:45;24.10;81.50
10986;DHT22;5546;48.714;8.738;2023-05-21T17:59:11;24.20;82.10
10986;DHT22;5546;48.714;8.738;2023-05-21T18:01:38;23.90;83.40
10986;DHT22;5546;48.714;8.738;2023-05-21T18:04:05;23.80;83.20
10986;DHT22;5546;48.714;8.738;2023-05-21T18:08:59;24.00;82.70
10986;DHT22;5546;48.714;8.738;2023-05-21T18:11:25;23.70;83.20
10986;DHT22;5546;48.714;8.738;2023-05-21T18:13:52;23.20;86.20
10986;DHT22;5546;48.714;8.738;2023-05-21T18:18:43;23.20;86.70
10986;DHT22;5546;48.714;8.738;2023-05-21T18:21:09;22.90;87.00
10986;DHT22;5546;48.714;8.738;2023-05-21T18:23:36;22.80;88.00
10986;DHT22;5546;48.714;8.738;2023-05-21T18:26:02;22.60;88.50
10986;DHT22;5546;48.714;8.738;2023-05-21T18:28:29;22.60;89.00
10986;DHT22;5546;48.714;8.738;2023-05-21T18:30:56;22.60;89.40
10986;DHT22;5546;48.714;8.738;2023-05-21T18:33:28;22.50;89.30
10986;DHT22;5546;48.714;8.738;2023-05-21T18:38:20;22.00;90.40
10986;DHT22;5546;48.714;8.738;2023-05-21T18:45:38;22.10;89.80
10986;DHT22;5546;48.714;8.738;2023-05-21T18:48:04;21.90;90.00
10986;DHT22;5546;48.714;8.738;2023-05-21T18:57:49;22.00;90.00
10986;DHT22;5546;48.714;8.738;2023-05-21T19:00:15;21.70;89.90
10986;DHT22;5546;48.714;8.738;2023-05-21T19:10:03;21.10;90.70
10986;DHT22;5546;48.714;8.738;2023-05-21T19:12:29;20.90;90.90
10986;DHT22;5546;48.714;8.738;2023-05-21T19:14:56;21.10;90.80
10986;DHT22;5546;48.714;8.738;2023-05-21T19:19:47;20.80;90.80
10986;DHT22;5546;48.714;8.738;2023-05-21T19:22:22;20.80;90.80
10986;DHT22;5546;48.714;8.738;2023-05-21T19:24:48;20.80;90.60
10986;DHT22;5546;48.714;8.738;2023-05-21T19:27:14;20.80;90.50
10986;DHT22;5546;48.714;8.738;2023-05-21T19:29:40;20.80;90.40
10986;DHT22;5546;48.714;8.738;2023-05-21T19:34:32;20.60;90.90
10986;DHT22;5546;48.714;8.738;2023-05-21T19:36:57;20.50;90.90
10986;DHT22;5546;48.714;8.738;2023-05-21T19:44:16;20.10;91.70
10986;DHT22;5546;48.714;8.738;2023-05-21T19:49:07;20.00;91.80
10986;DHT22;5546;48.714;8.738;2023-05-21T19:51:35;20.00;91.60
10986;DHT22;5546;48.714;8.738;2023-05-21T19:54:01;20.10;91.50
10986;DHT22;5546;48.714;8.738;2023-05-21T20:06:12;20.00;91.30
10986;DHT22;5546;48.714;8.738;2023-05-21T20:08:39;20.00;91.50
10986;DHT22;5546;48.714;8.738;2023-05-21T20:20:49;20.00;91.50
10986;DHT22;5546;48.714;8.738;2023-05-21T20:28:07;19.60;92.10
10986;DHT22;5546;48.714;8.738;2023-05-21T20:30:34;19.60;92.30
10986;DHT22;5546;48.714;8.738;2023-05-21T20:33:15;19.60;92.20
10986;DHT22;5546;48.714;8.738;2023-05-21T20:35:40;19.60;92.10
10986;DHT22;5546;48.714;8.738;2023-05-21T20:40:32;19.50;92.30
10986;DHT22;5546;48.714;8.738;2023-05-21T20:42:57;19.40;92.70
10986;DHT22;5546;48.714;8.738;2023-05-21T20:55:07;19.30;93.00
10986;DHT22;5546;48.714;8.738;2023-05-21T20:57:33;19.40;92.90
10986;DHT22;5546;48.714;8.738;2023-05-21T21:02:25;19.50;92.60
10986;DHT22;5546;48.714;8.738;2023-05-21T21:07:18;19.20;93.10
10986;DHT22;5546;48.714;8.738;2023-05-21T21:09:44;19.90;93.40
10986;DHT22;5546;48.714;8.738;2023-05-21T21:14:40;19.00;93.40
10986;DHT22;5546;48.714;8.738;2023-05-21T21:17:06;19.10;93.20
10986;DHT22;5546;48.714;8.738;2023-05-21T21:19:31;19.00;93.40
10986;DHT22;5546;48.714;8.738;2023-05-21T21:21:57;19.10;93.20
10986;DHT22;5546;48.714;8.738;2023-05-21T21:24:23;19.10;93.10
10986;DHT22;5546;48.714;8.738;2023-05-21T21:26:48;19.20;93.30
10986;DHT22;5546;48.714;8.738;2023-05-21T21:29:14;19.20;93.20
10986;DHT22;5546;48.714;8.738;2023-05-21T21:31:39;19.00;93.50
10986;DHT22;5546;48.714;8.738;2023-05-21T21:36:31;18.70;94.00
10986;DHT22;5546;48.714;8.738;2023-05-21T21:46:15;18.80;93.90
10986;DHT22;5546;48.714;8.738;2023-05-21T21:48:41;18.50;94.30
10986;DHT22;5546;48.714;8.738;2023-05-21T21:53:33;18.50;94.50
10986;DHT22;5546;48.714;8.738;2023-05-21T21:58:25;18.40;94.70
10986;DHT22;5546;48.714;8.738;2023-05-21T22:17:56;17.80;95.90
10986;DHT22;5546;48.714;8.738;2023-05-21T22:20:23;18.10;95.50
10986;DHT22;5546;48.714;8.738;2023-05-21T22:22:50;18.00;95.30
10986;DHT22;5546;48.714;8.738;2023-05-21T22:25:16;17.70;95.90
10986;DHT22;5546;48.714;8.738;2023-05-21T22:30:08;17.80;96.00
10986;DHT22;5546;48.714;8.738;2023-05-21T22:34:59;17.70;96.30
10986;DHT22;5546;48.714;8.738;2023-05-21T22:44:44;18.00;95.50
10986;DHT22;5546;48.714;8.738;2023-05-21T22:47:10;17.90;95.30
10986;DHT22;5546;48.714;8.738;2023-05-21T22:49:35;17.90;95.50
10986;DHT22;5546;48.714;8.738;2023-05-21T22:52:03;17.80;95.70
10986;DHT22;5546;48.714;8.738;2023-05-21T22:54:32;17.70;95.80
10986;DHT22;5546;48.714;8.738;2023-05-21T22:56:59;17.70;96.10
10986;DHT22;5546;48.714;8.738;2023-05-21T23:01:52;17.30;96.90
10986;DHT22;5546;48.714;8.738;2023-05-21T23:06:43;17.40;97.00
10986;DHT22;5546;48.714;8.738;2023-05-21T23:09:10;17.30;96.90
10986;DHT22;5546;48.714;8.738;2023-05-21T23:18:55;17.40;96.30
10986;DHT22;5546;48.714;8.738;2023-05-21T23:26:13;17.40;96.30
10986;DHT22;5546;48.714;8.738;2023-05-21T23:28:38;17.40;96.00
10986;DHT22;5546;48.714;8.738;2023-05-21T23:31:04;17.20;96.50
10986;DHT22;5546;48.714;8.738;2023-05-21T23:33:30;17.30;96.50
10986;DHT22;5546;48.714;8.738;2023-05-21T23:35:56;17.30;96.40
10986;DHT22;5546;48.714;8.738;2023-05-21T23:38:22;17.20;96.50
10986;DHT22;5546;48.714;8.738;2023-05-21T23:40:48;17.30;96.40
10986;DHT22;5546;48.714;8.738;2023-05-21T23:43:13;17.30;96.40
10986;DHT22;5546;48.714;8.738;2023-05-21T23:45:39;17.00;97.00
10986;DHT22;5546;48.714;8.738;2023-05-21T23:48:05;16.90;97.10
10986;DHT22;5546;48.714;8.738;2023-05-21T23:52:58;16.70;97.30
10986;DHT22;5546;48.714;8.738;2023-05-21T23:55:23;16.70;97.40
10986;DHT22;5546;48.714;8.738;2023-05-21T23:57:49;16.70;97.50
